Time;durP1;ratioP1;P1;durP2;ratioP2;P2;SDS_P1;SDS_P2;PMS_P1;PMS_P2;Temp;Humidity;BMP_temperature;BMP_pressure;BME280_temperature;BME280_humidity;BME280_pressure;Samples;Min_cycle;Max_cycle;Signal;HPM_P1;HPM_P2
2021/03/11 00:00:15;;;;;;;12.60;11.20;;;7.70;86.50;;;;;;5004253;28;20064;-72
2021/03/11 00:02:42;;;;;;;12.50;9.73;;;7.90;87.10;;;;;;5001726;28;20026;-73
2021/03/11 00:05:12;;;;;;;10.20;8.02;;;8.00;91.20;;;;;;5004368;28;20030;-73
2021/03/11 00:07:39;;;;;;;6.30;5.32;;;7.80;91.70;;;;;;5003052;28;20026;-73
2021/03/11 00:10:06;;;;;;;7.07;6.00;;;7.70;91.10;;;;;;5004472;28;20042;-72
2021/03/11 00:12:33;;;;;;;12.45;10.65;;;7.70;91.40;;;;;;5002506;28;20026;-73
2021/03/11 00:14:59;;;;;;;11.38;9.65;;;7.60;89.80;;;;;;5021153;28;20052;-73
2021/03/11 00:17:25;;;;;;;12.13;9.45;;;7.80;90.10;;;;;;5005080;28;20026;-73
2021/03/11 00:19:51;;;;;;;12.85;9.50;;;7.90;88.20;;;;;;5005006;28;20454;-73
2021/03/11 00:22:16;;;;;;;9.93;7.57;;;8.00;87.20;;;;;;5003198;28;20018;-73
2021/03/11 00:24:42;;;;;;;9.60;7.15;;;8.00;91.10;;;;;;5008910;28;20033;-73
2021/03/11 00:27:08;;;;;;;10.50;7.68;;;8.10;90.60;;;;;;5008465;28;20038;-72
2021/03/11 00:29:33;;;;;;;9.73;7.22;;;8.10;90.60;;;;;;5008297;28;20370;-72
2021/03/11 00:31:59;;;;;;;8.65;6.50;;;8.00;91.60;;;;;;5007067;28;20459;-73
2021/03/11 00:34:26;;;;;;;8.70;6.82;;;8.00;92.50;;;;;;5007253;28;20034;-73
2021/03/11 00:36:51;;;;;;;8.32;6.55;;;8.00;91.60;;;;;;5005858;28;20025;-72
2021/03/11 00:39:18;;;;;;;9.80;6.60;;;8.00;90.10;;;;;;5008262;28;20026;-72
2021/03/11 00:41:44;;;;;;;8.52;6.25;;;8.00;90.10;;;;;;5008486;28;20025;-73
2021/03/11 00:44:10;;;;;;;9.45;6.85;;;8.00;89.00;;;;;;5007702;28;20475;-72
2021/03/11 00:46:36;;;;;;;10.40;7.88;;;8.00;89.70;;;;;;5005150;28;20025;-72
2021/03/11 00:49:02;;;;;;;11.77;8.38;;;7.80;92.20;;;;;;5006531;28;20536;-73
2021/03/11 00:51:27;;;;;;;13.38;8.20;;;7.60;92.30;;;;;;5007373;28;20052;-73
2021/03/11 00:53:53;;;;;;;8.85;7.38;;;7.70;92.50;;;;;;5004547;28;20022;-73
2021/03/11 00:56:19;;;;;;;9.82;8.38;;;7.90;92.20;;;;;;5006034;28;20030;-73
2021/03/11 00:58:45;;;;;;;10.50;8.30;;;8.00;91.20;;;;;;5010614;28;20097;-72
2021/03/11 01:01:10;;;;;;;12.60;9.02;;;8.00;91.90;;;;;;5005515;28;20037;-73
2021/03/11 01:03:36;;;;;;;13.55;9.18;;;8.10;92.70;;;;;;5007136;28;20032;-72
2021/03/11 01:06:02;;;;;;;12.52;9.32;;;8.00;93.00;;;;;;5005670;28;20121;-72
2021/03/11 01:08:28;;;;;;;14.75;9.25;;;8.00;92.60;;;;;;5004424;28;20084;-72
2021/03/11 01:10:54;;;;;;;10.65;7.82;;;8.00;92.50;;;;;;5006209;28;20030;-72
2021/03/11 01:13:21;;;;;;;10.07;8.55;;;8.00;92.00;;;;;;5003891;28;20061;-72
2021/03/11 01:15:46;;;;;;;10.35;7.93;;;8.00;91.70;;;;;;5009617;28;20026;-73
2021/03/11 01:18:13;;;;;;;10.38;7.47;;;8.10;92.20;;;;;;5004526;28;20060;-72
2021/03/11 01:20:39;;;;;;;11.82;7.97;;;8.00;92.80;;;;;;5005013;28;20502;-72
2021/03/11 01:23:05;;;;;;;13.20;7.32;;;7.90;92.00;;;;;;5003355;28;20072;-73
2021/03/11 01:25:31;;;;;;;8.95;7.10;;;7.90;91.20;;;;;;5006999;28;20026;-72
2021/03/11 01:27:57;;;;;;;10.80;6.82;;;7.90;91.70;;;;;;5004214;28;20030;-73
2021/03/11 01:30:23;;;;;;;7.93;6.93;;;8.00;91.60;;;;;;5005382;28;20041;-72
2021/03/11 01:32:49;;;;;;;7.68;6.90;;;8.00;92.50;;;;;;5002134;28;20105;-73
2021/03/11 01:35:15;;;;;;;8.30;6.82;;;8.00;92.20;;;;;;5003730;28;20106;-73
2021/03/11 01:37:41;;;;;;;11.68;7.03;;;7.90;92.90;;;;;;5003340;28;20466;-73
2021/03/11 01:40:08;;;;;;;8.02;6.75;;;7.90;94.10;;;;;;5003617;28;20506;-72
2021/03/11 01:42:35;;;;;;;8.95;6.65;;;7.90;93.60;;;;;;5001557;28;20026;-73
2021/03/11 01:45:06;;;;;;;10.38;6.93;;;7.90;93.80;;;;;;5003289;28;20037;-73
2021/03/11 01:47:31;;;;;;;7.70;6.88;;;7.80;92.70;;;;;;5003836;28;20037;-73
2021/03/11 01:49:57;;;;;;;9.60;7.38;;;7.80;92.10;;;;;;5002157;28;20039;-73
2021/03/11 01:52:23;;;;;;;9.10;7.13;;;7.80;92.00;;;;;;5002792;28;20037;-73
2021/03/11 01:54:49;;;;;;;14.02;7.32;;;7.90;92.30;;;;;;5005968;28;20033;-73
2021/03/11 01:57:15;;;;;;;14.05;8.05;;;7.90;92.00;;;;;;5001263;28;20033;-73
2021/03/11 01:59:41;;;;;;;8.25;6.20;;;8.00;93.20;;;;;;5008823;28;20026;-72
2021/03/11 02:02:07;;;;;;;7.35;6.10;;;8.00;93.20;;;;;;5002320;28;20397;-73
2021/03/11 02:04:32;;;;;;;7.82;6.45;;;8.00;93.70;;;;;;5003526;28;20080;-72
2021/03/11 02:06:58;;;;;;;9.38;6.32;;;8.00;93.90;;;;;;5002043;28;20413;-73
2021/03/11 02:09:24;;;;;;;7.88;6.25;;;8.00;93.00;;;;;;5002476;28;20034;-72
2021/03/11 02:12:36;;;;;;;6.18;5.45;;;8.00;92.40;;;;;;5003543;28;20026;-74
2021/03/11 02:15:08;;;;;;;6.90;5.05;;;8.00;91.90;;;;;;4983363;28;20502;-73
2021/03/11 02:17:46;;;;;;;7.28;5.85;;;8.00;92.30;;;;;;4981569;28;20035;-72
2021/03/11 02:20:19;;;;;;;7.20;5.75;;;7.90;92.70;;;;;;4983852;28;20031;-73
2021/03/11 02:22:48;;;;;;;6.03;4.68;;;8.00;91.20;;;;;;4980797;28;20391;-73
2021/03/11 02:25:30;;;;;;;8.65;5.75;;;8.10;91.20;;;;;;4981682;28;20026;-73
2021/03/11 02:28:11;;;;;;;6.22;5.40;;;8.20;91.40;;;;;;4984300;28;20109;-73
2021/03/11 02:30:37;;;;;;;6.05;5.30;;;8.20;93.10;;;;;;4982155;28;20042;-72
2021/03/11 02:33:07;;;;;;;6.65;5.85;;;8.20;93.70;;;;;;4981023;28;20062;-73
2021/03/11 02:35:34;;;;;;;6.30;5.15;;;8.20;92.70;;;;;;4982497;28;20034;-73
2021/03/11 02:38:01;;;;;;;7.28;5.55;;;8.30;92.40;;;;;;4980411;28;20035;-73
2021/03/11 02:40:29;;;;;;;11.68;4.88;;;8.30;93.30;;;;;;4982106;28;20121;-73
2021/03/11 02:42:56;;;;;;;7.38;5.05;;;8.30;94.10;;;;;;4981409;28;20073;-73
2021/03/11 02:45:29;;;;;;;6.55;5.20;;;8.30;93.60;;;;;;4979634;28;20046;-72
2021/03/11 02:47:57;;;;;;;6.45;5.22;;;8.40;93.30;;;;;;4980756;28;20026;-72
2021/03/11 02:50:24;;;;;;;7.15;4.70;;;8.40;93.50;;;;;;4979979;28;20149;-73
2021/03/11 02:52:50;;;;;;;5.97;4.93;;;8.40;94.80;;;;;;4996912;28;20034;-73
2021/03/11 02:55:17;;;;;;;7.53;5.47;;;8.30;94.40;;;;;;5003110;28;20490;-72
2021/03/11 02:57:44;;;;;;;5.63;5.13;;;8.30;93.50;;;;;;5001699;28;20045;-73
2021/03/11 03:00:13;;;;;;;7.28;4.85;;;8.20;94.70;;;;;;5003356;28;20076;-73
2021/03/11 03:02:43;;;;;;;6.85;4.80;;;8.30;94.80;;;;;;5002570;28;20077;-73
2021/03/11 03:05:13;;;;;;;7.55;4.05;;;8.30;95.90;;;;;;5002377;28;20030;-73
2021/03/11 03:07:43;;;;;;;6.05;4.50;;;8.50;94.80;;;;;;5002636;28;20075;-73
2021/03/11 03:10:11;;;;;;;6.82;4.82;;;8.70;94.50;;;;;;5003946;28;20065;-73
2021/03/11 03:12:38;;;;;;;7.43;5.10;;;8.60;95.20;;;;;;5000414;28;20026;-73
2021/03/11 03:15:07;;;;;;;5.57;4.60;;;8.50;95.70;;;;;;5003532;28;20038;-73
2021/03/11 03:17:33;;;;;;;5.15;4.60;;;8.50;96.30;;;;;;5000400;28;20068;-73
2021/03/11 03:20:00;;;;;;;4.32;3.92;;;8.50;96.80;;;;;;5001990;28;20490;-73
2021/03/11 03:22:27;;;;;;;6.80;5.25;;;8.50;97.00;;;;;;5002083;28;20495;-72
2021/03/11 03:24:53;;;;;;;7.53;4.82;;;8.40;96.90;;;;;;5002522;28;20065;-73
2021/03/11 03:27:18;;;;;;;5.88;4.63;;;8.30;96.40;;;;;;5000765;28;20821;-72
2021/03/11 03:29:44;;;;;;;4.97;4.30;;;8.40;97.20;;;;;;5001627;28;20030;-73
2021/03/11 03:32:10;;;;;;;6.55;4.03;;;8.40;96.80;;;;;;5003167;28;20018;-73
2021/03/11 03:34:37;;;;;;;4.88;4.40;;;8.60;96.90;;;;;;5000138;28;20037;-73
2021/03/11 03:37:03;;;;;;;5.63;4.03;;;8.70;98.30;;;;;;5001465;28;20029;-72
2021/03/11 03:39:29;;;;;;;8.77;4.03;;;8.80;98.40;;;;;;5001773;28;20522;-73
2021/03/11 03:41:56;;;;;;;6.43;4.32;;;8.70;98.70;;;;;;5000088;28;20027;-73
2021/03/11 03:44:25;;;;;;;7.55;4.00;;;8.70;99.50;;;;;;5001332;28;20034;-72
2021/03/11 03:46:52;;;;;;;4.55;3.80;;;8.70;98.80;;;;;;5003575;28;20149;-73
2021/03/11 03:49:20;;;;;;;4.50;3.22;;;8.80;98.20;;;;;;5002175;28;20022;-72
2021/03/11 03:51:48;;;;;;;7.07;4.68;;;9.00;98.20;;;;;;5001496;28;20153;-73
2021/03/11 03:54:28;;;;;;;4.97;4.15;;;9.00;98.60;;;;;;4999594;28;20030;-72
2021/03/11 03:57:01;;;;;;;7.30;5.00;;;9.00;98.80;;;;;;5002401;28;20504;-73
2021/03/11 03:59:31;;;;;;;5.60;3.80;;;9.00;98.90;;;;;;5005783;28;20042;-72
2021/03/11 04:01:58;;;;;;;7.38;5.13;;;9.00;98.30;;;;;;5006037;28;20076;-72
2021/03/11 04:04:29;;;;;;;6.60;4.95;;;9.00;98.90;;;;;;5005606;28;20038;-72
2021/03/11 04:06:56;;;;;;;5.28;4.10;;;9.00;99.50;;;;;;5005565;28;20025;-73
2021/03/11 04:09:23;;;;;;;6.15;4.95;;;9.00;99.30;;;;;;5004496;28;20019;-73
2021/03/11 04:11:50;;;;;;;7.88;4.53;;;8.90;98.90;;;;;;5006428;28;20561;-73
2021/03/11 04:14:18;;;;;;;5.68;3.80;;;9.00;99.70;;;;;;5005655;28;20129;-73
2021/03/11 04:16:45;;;;;;;7.78;4.95;;;9.00;99.00;;;;;;5004384;28;20027;-72
2021/03/11 04:19:12;;;;;;;5.40;3.83;;;9.00;99.30;;;;;;5003575;28;20386;-73
2021/03/11 04:21:40;;;;;;;5.53;4.32;;;9.10;98.90;;;;;;5005771;28;20018;-72
2021/03/11 04:24:07;;;;;;;5.70;4.30;;;9.10;99.80;;;;;;5007067;28;20438;-72
2021/03/11 04:26:36;;;;;;;6.57;4.13;;;9.10;99.90;;;;;;5006909;28;20101;-72
2021/03/11 04:29:02;;;;;;;4.13;2.35;;;9.20;98.50;;;;;;5006362;28;20052;-73
2021/03/11 04:31:29;;;;;;;5.30;3.47;;;9.20;95.10;;;;;;5006434;28;20041;-73
2021/03/11 04:33:56;;;;;;;2.92;2.40;;;9.30;98.20;;;;;;5005201;28;20072;-73
2021/03/11 04:36:24;;;;;;;3.15;2.85;;;9.40;96.90;;;;;;5006136;28;20033;-73
2021/03/11 04:38:50;;;;;;;4.57;2.80;;;9.50;95.20;;;;;;5003551;28;20133;-73
2021/03/11 04:41:17;;;;;;;3.13;2.65;;;9.50;95.80;;;;;;5005115;28;20101;-73
2021/03/11 04:43:43;;;;;;;4.45;2.55;;;9.40;96.10;;;;;;5003981;28;20029;-73
2021/03/11 04:46:08;;;;;;;4.00;2.63;;;9.40;96.30;;;;;;5003581;28;20093;-73
2021/03/11 04:48:35;;;;;;;3.50;2.95;;;9.40;94.50;;;;;;5005170;28;20022;-72
2021/03/11 04:51:02;;;;;;;3.83;2.72;;;9.40;94.50;;;;;;5002995;28;20042;-73
2021/03/11 04:53:28;;;;;;;5.95;2.70;;;9.40;93.30;;;;;;5003455;28;20026;-73
2021/03/11 04:55:54;;;;;;;5.38;2.63;;;9.40;92.60;;;;;;5005058;28;20029;-73
2021/03/11 04:58:20;;;;;;;3.28;2.33;;;9.40;93.60;;;;;;5003383;28;20050;-73
2021/03/11 05:00:48;;;;;;;3.63;2.80;;;9.30;92.50;;;;;;5007942;28;20069;-73
2021/03/11 05:03:15;;;;;;;3.58;2.42;;;9.20;90.70;;;;;;5002653;28;20037;-73
2021/03/11 05:05:43;;;;;;;3.60;2.80;;;9.20;90.40;;;;;;5003971;28;20517;-73
2021/03/11 05:08:10;;;;;;;3.75;2.50;;;9.20;89.70;;;;;;5006483;28;20033;-72
2021/03/11 05:10:36;;;;;;;6.43;4.05;;;9.20;88.30;;;;;;5004792;28;20371;-73
2021/03/11 05:13:03;;;;;;;4.05;2.90;;;9.20;88.90;;;;;;5003834;28;20022;-73
2021/03/11 05:15:29;;;;;;;4.57;3.05;;;9.20;92.50;;;;;;5004296;28;20050;-73
2021/03/11 05:17:55;;;;;;;4.35;2.67;;;9.00;93.90;;;;;;5014531;28;20469;-73
2021/03/11 05:20:21;;;;;;;2.53;2.33;;;8.90;92.90;;;;;;5014177;28;20463;-73
2021/03/11 05:22:47;;;;;;;3.40;3.08;;;8.90;93.10;;;;;;5014603;28;20033;-72
2021/03/11 05:25:13;;;;;;;5.93;4.55;;;9.00;93.20;;;;;;5014318;28;20037;-73
2021/03/11 05:27:40;;;;;;;57.92;39.55;;;9.00;92.20;;;;;;5014441;28;20033;-72
2021/03/11 05:30:08;;;;;;;15.32;11.05;;;8.80;93.30;;;;;;5014145;28;20100;-73
2021/03/11 05:32:34;;;;;;;5.60;3.60;;;8.60;94.90;;;;;;5013996;28;20529;-73
2021/03/11 05:35:00;;;;;;;4.38;3.97;;;8.60;95.50;;;;;;5013965;28;20030;-73
2021/03/11 05:37:26;;;;;;;6.60;3.38;;;8.50;94.80;;;;;;5013691;28;20073;-73
2021/03/11 05:39:51;;;;;;;5.57;5.10;;;8.50;93.70;;;;;;5014092;28;20026;-72
2021/03/11 05:42:19;;;;;;;5.32;4.38;;;8.50;95.30;;;;;;5014036;28;20462;-74
2021/03/11 05:44:46;;;;;;;3.00;2.65;;;8.50;94.90;;;;;;5014261;28;20054;-76
2021/03/11 05:47:13;;;;;;;3.70;2.40;;;8.40;92.90;;;;;;5013449;28;20064;-74
2021/03/11 05:49:41;;;;;;;3.10;2.58;;;8.50;91.20;;;;;;5013377;28;20092;-73
2021/03/11 05:52:11;;;;;;;8.05;2.80;;;8.40;90.00;;;;;;5005965;28;20034;-73
2021/03/11 05:54:38;;;;;;;5.55;2.88;;;8.50;89.20;;;;;;5002528;28;20033;-73
2021/03/11 05:57:05;;;;;;;5.63;3.63;;;8.50;91.60;;;;;;5004223;28;20026;-73
2021/03/11 05:59:31;;;;;;;4.50;2.95;;;8.60;93.70;;;;;;5013039;28;20026;-74
2021/03/11 06:01:59;;;;;;;5.40;4.15;;;8.60;93.20;;;;;;5013584;28;20057;-72
2021/03/11 06:04:26;;;;;;;8.57;4.72;;;8.60;93.80;;;;;;5013004;28;20540;-73
2021/03/11 06:06:52;;;;;;;21.05;16.63;;;8.70;94.30;;;;;;5013600;28;20044;-73
2021/03/11 06:09:19;;;;;;;6.03;4.65;;;8.60;94.90;;;;;;5013138;28;20064;-74
2021/03/11 06:11:47;;;;;;;9.50;4.80;;;8.60;94.20;;;;;;5012415;28;20483;-72
2021/03/11 06:14:15;;;;;;;12.40;9.95;;;8.70;88.60;;;;;;5013168;28;20555;-73
2021/03/11 06:17:02;;;;;;;10.00;7.80;;;8.90;91.50;;;;;;5012746;28;20025;-73
2021/03/11 06:19:28;;;;;;;5.65;4.95;;;8.80;92.80;;;;;;5009756;28;20042;-73
2021/03/11 06:21:54;;;;;;;11.10;9.10;;;8.80;94.00;;;;;;5013045;28;20033;-73
2021/03/11 06:24:23;;;;;;;6.47;5.43;;;8.80;93.70;;;;;;5008386;28;20034;-73
2021/03/11 06:26:49;;;;;;;7.75;6.85;;;8.70;92.60;;;;;;5012070;28;20372;-73
2021/03/11 06:29:20;;;;;;;8.95;5.00;;;8.80;93.30;;;;;;5027964;28;20036;-73
2021/03/11 06:31:47;;;;;;;4.82;4.38;;;8.70;93.80;;;;;;5001114;28;20034;-73
2021/03/11 06:34:22;;;;;;;9.95;4.80;;;8.80;92.80;;;;;;5013021;28;20034;-73
2021/03/11 06:36:49;;;;;;;9.27;4.68;;;8.90;93.20;;;;;;5001572;28;20018;-73
2021/03/11 06:39:26;;;;;;;4.03;2.80;;;8.90;93.00;;;;;;5011914;28;20103;-73
2021/03/11 06:41:52;;;;;;;6.53;3.97;;;9.10;89.30;;;;;;5010422;28;20036;-73
2021/03/11 06:44:31;;;;;;;5.72;3.10;;;9.20;89.20;;;;;;5012085;28;20451;-73
2021/03/11 06:46:59;;;;;;;6.13;4.17;;;9.20;91.10;;;;;;5011549;28;20025;-73
2021/03/11 06:49:25;;;;;;;3.70;3.30;;;9.40;90.60;;;;;;5012518;28;20115;-73
2021/03/11 06:52:12;;;;;;;4.78;3.38;;;9.50;91.40;;;;;;5012194;28;20052;-74
2021/03/11 06:54:53;;;;;;;3.97;2.80;;;9.60;90.60;;;;;;5007935;28;20026;-74
2021/03/11 06:57:36;;;;;;;6.93;3.15;;;9.50;92.20;;;;;;5009475;28;20038;-73
2021/03/11 07:00:21;;;;;;;5.00;3.42;;;9.40;92.60;;;;;;5011962;28;20481;-73
2021/03/11 07:02:58;;;;;;;5.75;3.70;;;9.40;92.30;;;;;;5010875;28;20048;-73
2021/03/11 07:05:26;;;;;;;44.65;39.92;;;9.40;92.90;;;;;;5002340;28;20025;-73
2021/03/11 07:08:04;;;;;;;12.32;10.73;;;9.50;92.40;;;;;;5002338;28;20034;-74
2021/03/11 07:10:30;;;;;;;30.90;26.65;;;9.60;91.10;;;;;;4995252;28;20030;-73
2021/03/11 07:12:58;;;;;;;24.65;18.92;;;9.70;90.60;;;;;;5009516;28;20760;-73
2021/03/11 07:15:26;;;;;;;19.92;17.88;;;9.70;90.00;;;;;;5010719;28;20550;-74
2021/03/11 07:17:54;;;;;;;19.17;13.23;;;9.80;89.60;;;;;;5005343;28;20022;-75
2021/03/11 07:20:21;;;;;;;14.98;12.98;;;10.00;90.40;;;;;;4997969;28;20156;-74
2021/03/11 07:23:10;;;;;;;10.00;7.18;;;10.10;90.40;;;;;;5011267;28;20040;-76
2021/03/11 07:25:41;;;;;;;6.22;3.80;;;10.20;90.80;;;;;;4992994;28;20101;-74
2021/03/11 07:28:09;;;;;;;4.63;3.85;;;10.20;87.30;;;;;;4992731;28;20030;-74
2021/03/11 07:30:56;;;;;;;6.90;5.60;;;10.40;85.30;;;;;;5003139;28;20041;-75
2021/03/11 07:33:24;;;;;;;5.47;4.38;;;10.60;80.30;;;;;;5014771;28;20117;-75
2021/03/11 07:35:54;;;;;;;7.50;5.28;;;10.80;82.70;;;;;;5015989;28;20065;-75
2021/03/11 07:38:24;;;;;;;;;;;10.90;83.70;;;;;;5017124;28;20054;-75
2021/03/11 07:40:51;;;;;;;9.52;3.75;;;11.00;83.00;;;;;;5016058;28;19913;-74
2021/03/11 07:43:18;;;;;;;4.32;3.35;;;11.20;81.50;;;;;;5016201;28;20077;-73
2021/03/11 07:45:45;;;;;;;5.50;4.35;;;11.20;79.90;;;;;;5015995;28;20033;-74
2021/03/11 07:48:12;;;;;;;5.30;4.28;;;11.30;80.70;;;;;;5016049;28;20041;-74
2021/03/11 07:50:45;;;;;;;7.40;4.38;;;11.20;81.00;;;;;;5016119;28;20046;-74
2021/03/11 07:53:11;;;;;;;8.32;4.60;;;11.10;79.40;;;;;;5015819;28;20038;-74
2021/03/11 07:55:37;;;;;;;5.20;3.85;;;11.00;82.20;;;;;;5016264;28;20029;-74
2021/03/11 07:58:09;;;;;;;6.82;4.45;;;10.80;85.10;;;;;;5015628;28;20034;-74
2021/03/11 08:00:35;;;;;;;6.82;4.25;;;10.70;86.40;;;;;;5015501;28;20024;-74
2021/03/11 08:03:07;;;;;;;7.43;4.07;;;10.70;87.90;;;;;;5015809;28;20088;-74
2021/03/11 08:05:34;;;;;;;5.65;4.60;;;10.90;86.80;;;;;;5015937;28;20053;-74
2021/03/11 08:08:13;;;;;;;7.13;3.53;;;11.00;87.60;;;;;;5015126;28;20108;-74
2021/03/11 08:10:43;;;;;;;3.53;3.22;;;11.10;84.50;;;;;;5015526;28;20104;-74
2021/03/11 08:13:38;;;;;;;4.63;3.08;;;11.30;84.40;;;;;;5014738;28;20030;-75
2021/03/11 08:16:09;;;;;;;5.78;3.35;;;11.70;82.60;;;;;;5015310;28;20030;-74
2021/03/11 08:18:35;;;;;;;2.90;1.60;;;12.00;81.60;;;;;;5015353;28;20029;-74
2021/03/11 08:21:05;;;;;;;3.72;1.55;;;12.40;75.70;;;;;;5030651;28;20482;-74
2021/03/11 08:23:32;;;;;;;4.25;1.80;;;12.70;69.20;;;;;;5015128;28;20026;-74
2021/03/11 08:25:59;;;;;;;3.03;1.92;;;12.90;64.70;;;;;;5015335;28;20030;-74
2021/03/11 08:28:30;;;;;;;3.10;1.95;;;13.10;67.30;;;;;;5014799;28;20400;-74
2021/03/11 08:30:57;;;;;;;2.00;1.73;;;13.20;69.00;;;;;;5001815;28;20039;-74
2021/03/11 08:33:25;;;;;;;4.05;3.13;;;13.40;67.40;;;;;;5013739;28;20033;-74
2021/03/11 08:35:57;;;;;;;4.72;2.80;;;13.40;68.70;;;;;;5007507;28;20108;-74
2021/03/11 08:38:22;;;;;;;1.90;1.80;;;13.40;68.70;;;;;;5013397;28;20387;-74
2021/03/11 08:41:05;;;;;;;2.72;2.20;;;13.70;66.20;;;;;;5008806;28;20083;-74
2021/03/11 08:43:40;;;;;;;4.80;2.70;;;13.90;66.40;;;;;;5011489;28;20025;-74
2021/03/11 08:46:14;;;;;;;4.05;1.88;;;14.20;65.70;;;;;;5014971;28;20057;-74
2021/03/11 08:48:46;;;;;;;3.65;2.08;;;14.40;63.60;;;;;;5002152;28;20390;-74
2021/03/11 08:51:18;;;;;;;1.70;1.60;;;14.60;59.30;;;;;;5014848;28;20045;-74
2021/03/11 08:53:47;;;;;;;3.78;2.08;;;14.70;58.30;;;;;;5014959;28;20040;-74
2021/03/11 08:56:16;;;;;;;2.30;1.75;;;14.90;59.30;;;;;;5014983;28;20033;-74
2021/03/11 08:58:55;;;;;;;5.20;1.60;;;15.10;57.10;;;;;;5009500;28;20065;-73
2021/03/11 09:01:39;;;;;;;2.17;1.98;;;15.40;54.40;;;;;;5014333;28;20047;-74
2021/03/11 09:04:20;;;;;;;2.65;1.70;;;15.90;54.10;;;;;;5014981;28;20029;-73
2021/03/11 09:06:55;;;;;;;4.60;1.80;;;16.10;51.60;;;;;;5014658;28;20407;-74
2021/03/11 09:09:40;;;;;;;2.70;2.00;;;16.70;52.40;;;;;;5014138;28;20045;-74
2021/03/11 09:12:08;;;;;;;2.78;1.95;;;18.00;48.90;;;;;;5014422;28;20022;-73
2021/03/11 09:14:35;;;;;;;4.72;2.58;;;19.80;46.10;;;;;;5014342;28;20030;-73
2021/03/11 09:17:11;;;;;;;3.80;1.90;;;20.70;42.30;;;;;;5014329;28;20390;-74
2021/03/11 09:19:45;;;;;;;1.55;1.45;;;21.30;39.90;;;;;;5014710;28;20045;-73
2021/03/11 09:22:22;;;;;;;2.53;1.80;;;23.30;38.10;;;;;;5014273;28;20017;-73
2021/03/11 09:24:57;;;;;;;3.25;2.25;;;23.90;36.80;;;;;;5014546;28;20030;-73
2021/03/11 09:27:30;;;;;;;2.22;2.10;;;25.30;35.10;;;;;;5013886;28;20033;-74
2021/03/11 09:30:01;;;;;;;2.72;2.10;;;25.90;34.00;;;;;;5014260;28;20033;-74
2021/03/11 09:32:32;;;;;;;3.17;2.20;;;26.80;32.40;;;;;;5014115;28;20099;-74
2021/03/11 09:35:02;;;;;;;3.00;2.20;;;26.50;33.30;;;;;;5014497;28;20026;-74
2021/03/11 09:37:47;;;;;;;2.47;2.33;;;26.70;32.50;;;;;;5014126;28;20032;-74
2021/03/11 09:40:32;;;;;;;2.22;1.98;;;28.00;32.80;;;;;;5013916;28;20038;-74
2021/03/11 09:43:16;;;;;;;1.98;1.88;;;28.50;32.30;;;;;;5014069;28;20121;-73
2021/03/11 09:45:56;;;;;;;2.22;2.05;;;28.80;30.00;;;;;;5013229;28;20022;-74
2021/03/11 09:48:30;;;;;;;3.90;2.30;;;29.40;29.70;;;;;;5013908;28;20026;-74
2021/03/11 09:50:58;;;;;;;2.35;2.15;;;29.60;30.90;;;;;;5013617;28;20050;-74
2021/03/11 09:53:38;;;;;;;2.35;2.15;;;29.90;30.00;;;;;;5013839;28;20091;-75
2021/03/11 09:56:05;;;;;;;2.53;2.10;;;30.00;29.20;;;;;;5012624;28;20022;-75
2021/03/11 09:58:31;;;;;;;2.38;2.17;;;30.00;29.70;;;;;;5013140;28;20030;-73
2021/03/11 10:00:58;;;;;;;2.70;2.50;;;30.80;29.30;;;;;;5013353;28;20028;-74
2021/03/11 10:03:29;;;;;;;2.80;2.60;;;31.20;28.70;;;;;;5013310;28;20085;-74
2021/03/11 10:06:00;;;;;;;3.03;2.08;;;31.10;29.10;;;;;;5013392;28;20028;-74
2021/03/11 10:08:30;;;;;;;2.55;2.33;;;31.50;28.80;;;;;;5001142;28;20030;-74
2021/03/11 10:11:12;;;;;;;2.42;2.22;;;32.80;28.30;;;;;;4996853;28;20052;-74
2021/03/11 10:13:42;;;;;;;2.08;1.98;;;32.60;28.60;;;;;;5011869;28;20088;-74
2021/03/11 10:16:09;;;;;;;2.67;2.38;;;33.00;27.60;;;;;;5013637;28;20450;-74
2021/03/11 10:18:36;;;;;;;2.72;2.55;;;32.10;28.20;;;;;;5013388;28;20030;-73
2021/03/11 10:21:08;;;;;;;2.90;2.70;;;32.20;28.20;;;;;;5012984;28;20065;-74
2021/03/11 10:23:36;;;;;;;2.17;2.00;;;32.60;28.10;;;;;;5012749;28;20091;-74
2021/03/11 10:26:34;;;;;;;3.28;2.78;;;32.50;28.10;;;;;;5013116;28;20029;-74
2021/03/11 10:29:07;;;;;;;2.85;2.65;;;31.10;28.30;;;;;;5013100;28;20030;-74
2021/03/11 10:31:33;;;;;;;2.88;2.58;;;31.10;27.90;;;;;;5006782;28;20517;-74
2021/03/11 10:34:07;;;;;;;3.60;2.55;;;32.10;28.50;;;;;;5001154;28;20038;-73
2021/03/11 10:36:35;;;;;;;3.97;2.58;;;32.70;28.10;;;;;;5003719;28;20034;-74
2021/03/11 10:39:08;;;;;;;2.17;2.08;;;34.10;29.10;;;;;;5000897;28;20069;-75
2021/03/11 10:41:37;;;;;;;2.53;2.42;;;32.60;28.20;;;;;;5001699;28;20080;-75
2021/03/11 10:44:16;;;;;;;3.15;2.85;;;33.80;27.70;;;;;;4993578;28;20062;-75
2021/03/11 10:46:42;;;;;;;2.67;2.53;;;34.00;26.90;;;;;;5008336;28;20566;-74
2021/03/11 10:49:11;;;;;;;3.60;2.83;;;35.70;28.70;;;;;;4993384;28;20026;-74
2021/03/11 10:51:38;;;;;;;4.30;2.88;;;37.90;26.10;;;;;;4992772;28;20133;-74
2021/03/11 10:54:04;;;;;;;2.83;2.63;;;38.40;26.00;;;;;;5003433;28;20034;-74
2021/03/11 10:56:30;;;;;;;2.85;2.53;;;38.70;25.10;;;;;;5012385;28;20430;-74
2021/03/11 10:59:07;;;;;;;2.72;2.30;;;35.60;26.80;;;;;;5011738;28;20061;-75
2021/03/11 11:01:34;;;;;;;5.50;2.33;;;33.10;27.60;;;;;;5012435;28;20449;-74
2021/03/11 11:04:01;;;;;;;2.78;2.58;;;34.60;27.60;;;;;;5012329;28;20022;-74
2021/03/11 11:06:31;;;;;;;2.38;2.28;;;35.00;28.00;;;;;;5011850;28;20041;-74
2021/03/11 11:08:57;;;;;;;3.88;2.70;;;34.20;27.90;;;;;;5026694;28;20429;-74
2021/03/11 11:11:23;;;;;;;3.08;2.80;;;36.20;28.00;;;;;;5012236;28;20440;-74
2021/03/11 11:13:50;;;;;;;2.47;2.30;;;37.00;26.30;;;;;;5012326;28;20080;-74
2021/03/11 11:16:16;;;;;;;3.72;2.40;;;38.40;26.00;;;;;;5012541;28;20032;-74
2021/03/11 11:18:43;;;;;;;2.67;2.47;;;39.40;26.10;;;;;;5012432;28;20025;-74
2021/03/11 11:21:10;;;;;;;2.83;2.60;;;39.20;25.60;;;;;;5012625;28;20493;-74
2021/03/11 11:23:36;;;;;;;2.80;2.58;;;40.20;25.20;;;;;;5011922;28;20022;-75
2021/03/11 11:26:01;;;;;;;3.03;2.53;;;41.20;25.20;;;;;;5012535;28;20065;-74
2021/03/11 11:28:27;;;;;;;5.05;2.83;;;40.40;24.60;;;;;;5012454;28;20061;-75
2021/03/11 11:30:53;;;;;;;2.83;2.63;;;40.70;24.70;;;;;;5012340;28;20033;-75
2021/03/11 11:33:19;;;;;;;3.00;2.80;;;40.40;24.60;;;;;;5012322;28;20034;-75
2021/03/11 11:35:45;;;;;;;2.78;2.58;;;39.60;24.00;;;;;;5012324;28;20026;-75
2021/03/11 11:38:10;;;;;;;2.78;2.58;;;38.60;25.90;;;;;;5011957;28;20058;-75
2021/03/11 11:40:36;;;;;;;2.67;2.58;;;38.20;25.20;;;;;;5012410;28;20117;-75
2021/03/11 11:43:02;;;;;;;12.20;2.55;;;38.40;24.50;;;;;;5012154;28;20030;-75
2021/03/11 11:45:30;;;;;;;2.90;2.55;;;38.70;26.10;;;;;;5011934;28;20041;-75
2021/03/11 11:47:56;;;;;;;2.13;2.03;;;39.30;24.90;;;;;;5011576;28;20104;-75
2021/03/11 11:50:22;;;;;;;2.35;2.25;;;40.40;24.90;;;;;;5011875;28;20180;-75
2021/03/11 11:52:48;;;;;;;2.88;2.40;;;41.00;24.40;;;;;;5011622;28;20030;-75
2021/03/11 11:55:14;;;;;;;2.40;2.20;;;41.20;24.30;;;;;;5012280;28;20030;-74
2021/03/11 11:57:41;;;;;;;3.42;3.13;;;40.50;24.90;;;;;;5012329;28;20394;-75
2021/03/11 12:00:10;;;;;;;2.92;2.72;;;39.40;24.80;;;;;;5011843;28;20521;-75
2021/03/11 12:02:36;;;;;;;2.10;2.00;;;38.90;25.90;;;;;;5011915;28;20019;-75
2021/03/11 12:05:02;;;;;;;2.50;2.30;;;39.10;25.70;;;;;;5011780;28;20041;-75
2021/03/11 12:07:28;;;;;;;2.58;2.38;;;40.40;26.30;;;;;;5012140;28;20029;-75
2021/03/11 12:09:55;;;;;;;3.13;2.38;;;40.70;25.30;;;;;;5011293;28;20061;-75
2021/03/11 12:12:21;;;;;;;2.42;2.22;;;41.30;24.60;;;;;;5012205;28;20418;-75
2021/03/11 12:14:47;;;;;;;2.35;2.25;;;41.30;25.00;;;;;;5011647;28;20030;-75
2021/03/11 12:17:12;;;;;;;2.17;2.08;;;40.70;25.30;;;;;;5011854;28;20056;-74
2021/03/11 12:19:38;;;;;;;2.78;2.58;;;40.90;25.30;;;;;;5014187;28;20394;-75
2021/03/11 12:22:04;;;;;;;2.67;2.47;;;41.00;25.40;;;;;;5015586;28;20029;-75
2021/03/11 12:24:30;;;;;;;2.50;2.30;;;40.90;25.50;;;;;;5015073;28;20040;-74
2021/03/11 12:26:56;;;;;;;2.45;2.35;;;39.90;25.20;;;;;;5015023;28;20386;-75
2021/03/11 12:29:21;;;;;;;2.90;2.10;;;39.20;25.40;;;;;;5015370;28;20084;-75
2021/03/11 12:31:48;;;;;;;2.33;2.13;;;39.50;24.60;;;;;;5015130;28;20474;-75
2021/03/11 12:34:14;;;;;;;2.70;2.50;;;40.10;26.50;;;;;;5015173;28;20188;-75
2021/03/11 12:36:41;;;;;;;2.17;2.08;;;40.70;26.50;;;;;;5015531;28;20030;-75
2021/03/11 12:39:08;;;;;;;2.25;2.15;;;39.90;26.20;;;;;;5015238;28;20033;-75
2021/03/11 12:41:33;;;;;;;2.60;2.33;;;39.60;26.10;;;;;;5015325;28;20014;-76
2021/03/11 12:43:59;;;;;;;2.30;2.13;;;39.70;25.60;;;;;;5015203;28;20034;-75
2021/03/11 12:46:25;;;;;;;3.53;2.17;;;39.70;27.50;;;;;;5014761;28;20038;-75
2021/03/11 12:48:51;;;;;;;2.40;2.30;;;40.00;26.70;;;;;;5014953;28;20053;-75
2021/03/11 12:51:19;;;;;;;2.22;2.03;;;41.00;26.10;;;;;;5030073;28;20049;-75
2021/03/11 12:53:44;;;;;;;3.58;2.92;;;42.50;24.50;;;;;;5015111;28;20026;-75
2021/03/11 12:56:10;;;;;;;1.90;1.80;;;41.70;24.80;;;;;;5014997;28;20101;-75
2021/03/11 12:58:36;;;;;;;2.40;2.08;;;41.40;25.00;;;;;;5013591;28;20030;-75